createdAt,value
2023-06-26T00:00:58.398Z,141.76
2023-06-26T00:01:58.369Z,143.02
2023-06-26T00:02:58.445Z,142.90
2023-06-26T00:03:58.503Z,141.84
2023-06-26T00:04:58.429Z,144.57
2023-06-26T00:05:58.427Z,143.58
2023-06-26T00:06:58.467Z,142.37
2023-06-26T00:07:58.450Z,144.05
2023-06-26T00:08:58.456Z,144.12
2023-06-26T00:09:58.492Z,146.06
2023-06-26T00:10:58.500Z,144.17
2023-06-26T00:11:58.509Z,144.85
2023-06-26T00:12:58.531Z,144.28
2023-06-26T00:13:58.550Z,148.30
2023-06-26T00:14:58.552Z,144.71
2023-06-26T00:15:58.580Z,147.27
2023-06-26T00:16:58.592Z,143.30
2023-06-26T00:17:58.664Z,147.85
2023-06-26T00:18:58.627Z,144.85
2023-06-26T00:19:58.630Z,145.41
2023-06-26T00:20:58.666Z,144.37
2023-06-26T00:21:58.668Z,146.66
2023-06-26T00:22:58.701Z,146.72
2023-06-26T00:23:58.706Z,146.75
2023-06-26T00:24:58.750Z,148.38
2023-06-26T00:25:58.768Z,150.34
2023-06-26T00:26:58.772Z,148.81
2023-06-26T00:27:58.779Z,151.62
2023-06-26T00:28:58.812Z,149.77
2023-06-26T00:29:58.826Z,146.01
2023-06-26T00:30:58.887Z,147.80
2023-06-26T00:31:58.858Z,150.61
2023-06-26T00:32:58.918Z,149.60
2023-06-26T00:33:58.894Z,147.83
2023-06-26T00:34:58.912Z,148.97
2023-06-26T00:35:58.920Z,151.43
2023-06-26T00:36:58.942Z,151.09
2023-06-26T00:37:58.973Z,150.87
2023-06-26T00:38:58.980Z,149.76
2023-06-26T00:39:59.018Z,151.64
2023-06-26T00:40:59.085Z,149.40
2023-06-26T00:41:59.024Z,152.29
2023-06-26T00:42:59.057Z,150.70
2023-06-26T00:43:59.070Z,149.92
2023-06-26T00:44:59.094Z,152.94
2023-06-26T00:45:59.139Z,150.04
2023-06-26T00:46:59.133Z,152.28
2023-06-26T00:47:59.172Z,151.25
2023-06-26T00:48:59.174Z,149.83
2023-06-26T00:49:59.206Z,152.48
2023-06-26T00:50:59.213Z,153.57
2023-06-26T00:51:59.218Z,148.53
2023-06-26T00:52:59.260Z,152.56
2023-06-26T00:53:59.262Z,151.26
2023-06-26T00:54:59.282Z,152.86
2023-06-26T00:55:59.294Z,151.31
2023-06-26T00:56:59.318Z,150.50
2023-06-26T00:57:59.356Z,152.22
2023-06-26T00:58:59.365Z,153.87
2023-06-26T00:59:59.396Z,149.70
2023-06-26T01:00:59.391Z,149.34
2023-06-26T01:01:59.421Z,149.07
2023-06-26T01:02:59.479Z,151.93
2023-06-26T01:03:59.439Z,155.80
2023-06-26T01:04:59.483Z,152.61
2023-06-26T01:06:08.735Z,154.56
2023-06-26T01:06:59.492Z,154.94
2023-06-26T01:07:59.490Z,155.57
2023-06-26T01:08:59.465Z,156.52
2023-06-26T01:09:59.740Z,156.20
2023-06-26T01:10:59.453Z,159.75
2023-06-26T01:11:59.450Z,155.86
2023-06-26T01:12:59.442Z,158.33
2023-06-26T01:13:59.438Z,154.39
2023-06-26T01:14:59.427Z,155.47
2023-06-26T01:15:59.448Z,156.03
2023-06-26T01:16:59.444Z,155.58
2023-06-26T01:17:59.450Z,153.42
2023-06-26T01:18:59.397Z,154.64
2023-06-26T01:19:59.432Z,155.23
2023-06-26T01:20:59.373Z,155.71
2023-06-26T01:21:59.402Z,151.65
2023-06-26T01:22:59.360Z,150.13
2023-06-26T01:23:59.373Z,154.75
2023-06-26T01:24:59.348Z,154.19
2023-06-26T01:25:59.348Z,155.68
2023-06-26T01:26:59.336Z,153.10
2023-06-26T01:27:59.342Z,154.95
2023-06-26T01:28:59.321Z,154.36
2023-06-26T01:29:59.320Z,157.76
2023-06-26T01:30:59.312Z,153.73
2023-06-26T01:31:59.416Z,150.65
2023-06-26T01:32:59.368Z,158.98
2023-06-26T01:33:59.289Z,155.66
2023-06-26T01:34:59.295Z,155.93
2023-06-26T01:35:59.283Z,153.60
2023-06-26T01:36:59.275Z,154.17
2023-06-26T01:37:59.265Z,153.85
2023-06-26T01:38:59.254Z,151.10
2023-06-26T01:39:59.278Z,155.46
2023-06-26T01:40:59.245Z,155.76
2023-06-26T01:41:59.236Z,154.06
2023-06-26T01:42:59.235Z,157.29
2023-06-26T01:43:59.232Z,157.58
2023-06-26T01:44:59.223Z,154.46
2023-06-26T01:45:59.334Z,153.59
2023-06-26T01:46:59.203Z,155.54
2023-06-26T01:47:59.228Z,153.84
2023-06-26T01:48:59.191Z,153.28
2023-06-26T01:49:59.184Z,155.11
2023-06-26T01:50:59.185Z,154.26
2023-06-26T01:51:59.167Z,156.90
2023-06-26T01:52:59.164Z,156.75
2023-06-26T01:53:59.157Z,156.40
2023-06-26T01:54:59.157Z,157.12
2023-06-26T01:55:59.162Z,156.04
2023-06-26T01:56:59.202Z,156.79
2023-06-26T01:57:59.127Z,158.18
2023-06-26T01:58:59.115Z,157.42
2023-06-26T01:59:59.132Z,155.78
2023-06-26T02:00:59.162Z,154.00
2023-06-26T02:01:59.169Z,155.79
2023-06-26T02:02:59.230Z,155.75
2023-06-26T02:03:59.200Z,158.12
2023-06-26T02:04:59.086Z,158.28
2023-06-26T02:05:59.087Z,154.89
2023-06-26T02:06:59.099Z,157.11
2023-06-26T02:07:59.077Z,159.82
2023-06-26T02:08:59.091Z,157.34
2023-06-26T02:09:59.076Z,157.83
2023-06-26T02:10:59.053Z,157.90
2023-06-26T02:11:59.029Z,155.02
2023-06-26T02:12:59.023Z,156.88
2023-06-26T02:13:59.046Z,158.44
2023-06-26T02:14:59.073Z,156.73
2023-06-26T02:15:59.105Z,157.69
2023-06-26T02:16:59.135Z,157.96
2023-06-26T02:17:59.167Z,154.05
2023-06-26T02:18:59.216Z,157.63
2023-06-26T02:19:59.232Z,159.87
2023-06-26T02:20:59.259Z,159.58
2023-06-26T02:21:59.305Z,159.66
2023-06-26T02:22:59.315Z,158.42
2023-06-26T02:23:59.379Z,157.57
2023-06-26T02:24:59.393Z,158.05
2023-06-26T02:25:59.429Z,156.05
2023-06-26T02:26:59.462Z,156.87
2023-06-26T02:27:59.508Z,156.78
2023-06-26T02:28:59.540Z,160.37
2023-06-26T02:29:59.571Z,158.53
2023-06-26T02:30:59.636Z,156.46
2023-06-26T02:31:59.633Z,160.66
2023-06-26T02:32:59.724Z,157.00
2023-06-26T02:33:59.676Z,158.21
2023-06-26T02:34:59.715Z,155.59
2023-06-26T02:35:59.763Z,156.29
2023-06-26T02:36:59.795Z,159.91
2023-06-26T02:37:59.814Z,156.37
2023-06-26T02:38:59.848Z,156.75
2023-06-26T02:39:59.940Z,158.89
2023-06-26T02:40:59.929Z,156.28
2023-06-26T02:41:59.950Z,158.75
2023-06-26T02:42:59.996Z,156.87
2023-06-26T02:44:00.058Z,156.72
2023-06-26T02:45:00.047Z,156.47
2023-06-26T02:46:00.093Z,155.37
2023-06-26T02:47:00.123Z,157.02
2023-06-26T02:48:00.202Z,158.68
2023-06-26T02:49:00.174Z,159.86
2023-06-26T02:50:00.223Z,152.74
2023-06-26T02:51:00.249Z,154.13
2023-06-26T02:52:00.278Z,156.68
2023-06-26T02:53:00.316Z,156.09
2023-06-26T02:54:00.325Z,153.49
2023-06-26T02:55:00.361Z,157.36
2023-06-26T02:56:00.400Z,157.40
2023-06-26T02:57:00.420Z,151.28
2023-06-26T02:58:00.485Z,160.47
2023-06-26T02:59:00.491Z,153.30
2023-06-26T03:00:00.530Z,158.12
2023-06-26T03:01:00.610Z,153.83
2023-06-26T03:02:00.604Z,158.32
2023-06-26T03:03:00.666Z,156.36
2023-06-26T03:04:00.685Z,157.22
2023-06-26T03:05:00.738Z,157.73
2023-06-26T03:06:00.750Z,157.33
2023-06-26T03:07:00.812Z,159.27
2023-06-26T03:08:00.885Z,159.78
2023-06-26T03:09:00.852Z,155.23
2023-06-26T03:10:00.884Z,157.87
2023-06-26T03:11:00.922Z,153.40
2023-06-26T03:12:00.932Z,153.07
2023-06-26T03:13:00.992Z,155.57
2023-06-26T03:14:01.034Z,157.96
2023-06-26T03:15:01.041Z,157.43
2023-06-26T03:16:01.116Z,155.25
2023-06-26T03:17:01.203Z,159.08
2023-06-26T03:18:01.252Z,156.72
2023-06-26T03:19:01.203Z,157.25
2023-06-26T03:20:01.219Z,153.04
2023-06-26T03:21:01.306Z,156.63
2023-06-26T03:22:01.286Z,156.43
2023-06-26T03:23:01.335Z,153.66
2023-06-26T03:24:01.371Z,157.45
2023-06-26T03:25:01.423Z,153.73
2023-06-26T03:26:01.442Z,159.13
2023-06-26T03:27:01.484Z,156.90
2023-06-26T03:28:01.511Z,155.38
2023-06-26T03:29:01.563Z,153.31
2023-06-26T03:30:01.598Z,155.17
2023-06-26T03:31:01.669Z,157.42
2023-06-26T03:32:01.697Z,153.67
2023-06-26T03:33:01.767Z,153.24
2023-06-26T03:34:01.770Z,153.60
2023-06-26T03:35:01.808Z,151.50
2023-06-26T03:36:01.845Z,153.39
2023-06-26T03:37:01.860Z,158.20
2023-06-26T03:38:01.903Z,155.68
2023-06-26T03:39:01.992Z,157.43
2023-06-26T03:40:02.000Z,155.98
2023-06-26T03:41:02.087Z,151.83
2023-06-26T03:42:02.104Z,152.26
2023-06-26T03:43:02.116Z,152.66
2023-06-26T03:44:02.205Z,150.47
2023-06-26T03:45:02.206Z,148.87
2023-06-26T03:46:02.361Z,152.68
2023-06-26T03:47:02.272Z,152.46
2023-06-26T03:48:02.344Z,149.94
2023-06-26T03:49:02.323Z,152.18
2023-06-26T03:50:02.401Z,149.91
2023-06-26T03:51:02.422Z,152.63
2023-06-26T03:52:02.430Z,154.54
2023-06-26T03:53:02.467Z,151.48
2023-06-26T03:54:02.502Z,153.00
2023-06-26T03:55:02.581Z,153.24
2023-06-26T03:56:02.589Z,149.87
2023-06-26T03:57:02.619Z,149.13
2023-06-26T03:58:02.642Z,149.81
2023-06-26T03:59:02.684Z,148.92
2023-06-26T04:00:02.704Z,152.56
2023-06-26T04:01:02.733Z,148.69
2023-06-26T04:02:02.774Z,147.35
2023-06-26T04:03:02.842Z,150.11
2023-06-26T04:04:02.877Z,145.98
2023-06-26T04:05:02.883Z,152.32
2023-06-26T04:06:02.912Z,146.50
2023-06-26T04:07:02.949Z,151.26
2023-06-26T04:08:03.020Z,150.31
2023-06-26T04:09:02.995Z,148.92
2023-06-26T04:10:03.029Z,151.02
2023-06-26T04:11:03.090Z,152.03
2023-06-26T04:12:03.119Z,150.30
2023-06-26T04:13:03.126Z,149.42
2023-06-26T04:14:03.139Z,149.04
2023-06-26T04:15:03.185Z,148.32
2023-06-26T04:16:03.242Z,146.76
2023-06-26T04:17:03.268Z,147.74
2023-06-26T04:18:03.304Z,151.18
2023-06-26T04:19:03.332Z,146.07
2023-06-26T04:20:03.355Z,146.43
2023-06-26T04:21:03.385Z,143.19
2023-06-26T04:22:03.419Z,146.22
2023-06-26T04:23:03.443Z,150.06
2023-06-26T04:24:03.477Z,142.79
2023-06-26T04:25:03.494Z,144.92
2023-06-26T04:26:03.548Z,149.96
2023-06-26T04:27:03.567Z,143.34
2023-06-26T04:28:03.573Z,145.03
2023-06-26T04:29:03.608Z,143.83
2023-06-26T04:30:03.649Z,145.88
2023-06-26T04:31:03.655Z,141.79
2023-06-26T04:32:03.812Z,146.47
2023-06-26T04:33:03.721Z,140.87
2023-06-26T04:34:03.750Z,143.17
2023-06-26T04:35:03.778Z,144.01
2023-06-26T04:36:03.825Z,139.71
2023-06-26T04:37:03.825Z,140.69
2023-06-26T04:38:03.858Z,137.99
2023-06-26T04:39:03.884Z,140.23
2023-06-26T04:40:03.935Z,140.26
2023-06-26T04:41:03.942Z,138.93
2023-06-26T04:42:03.950Z,138.76
2023-06-26T04:43:03.978Z,131.20
2023-06-26T04:44:03.975Z,134.54
2023-06-26T04:45:04.008Z,133.73
2023-06-26T04:46:04.075Z,131.27
2023-06-26T04:47:04.044Z,133.38
2023-06-26T04:48:04.066Z,131.10
2023-06-26T04:49:04.086Z,132.67
2023-06-26T04:50:04.093Z,134.35
2023-06-26T04:51:04.103Z,132.73
2023-06-26T04:52:04.099Z,129.93
2023-06-26T04:53:04.126Z,131.83
2023-06-26T04:54:04.113Z,130.93
2023-06-26T04:55:04.107Z,128.63
2023-06-26T04:56:04.114Z,133.09
2023-06-26T04:57:04.094Z,127.46
2023-06-26T04:58:04.083Z,129.25
2023-06-26T04:59:04.106Z,126.69
2023-06-26T05:00:04.089Z,125.95
2023-06-26T05:01:04.160Z,126.15
2023-06-26T05:02:04.223Z,126.27
2023-06-26T05:03:04.212Z,124.03
2023-06-26T05:04:04.122Z,124.81
2023-06-26T05:05:04.172Z,123.97
2023-06-26T05:06:09.161Z,122.91
2023-06-26T05:07:05.276Z,123.00
2023-06-26T05:08:04.197Z,123.04
2023-06-26T05:09:04.220Z,120.95
2023-06-26T05:10:04.261Z,119.42
2023-06-26T05:11:04.187Z,118.55
2023-06-26T05:12:04.183Z,117.11
2023-06-26T05:13:04.185Z,112.27
2023-06-26T05:14:04.160Z,113.34
2023-06-26T05:15:04.152Z,113.09
2023-06-26T05:16:04.154Z,116.24
2023-06-26T05:17:04.194Z,112.70
2023-06-26T05:18:04.230Z,117.01
2023-06-26T05:19:04.304Z,116.51
2023-06-26T05:20:04.291Z,109.89
2023-06-26T05:21:04.311Z,106.23
2023-06-26T05:22:04.346Z,104.44
2023-06-26T05:23:04.314Z,103.82
2023-06-26T05:24:04.317Z,105.35
2023-06-26T05:25:04.360Z,101.34
2023-06-26T05:26:04.343Z,103.03
2023-06-26T05:27:04.390Z,103.66
2023-06-26T05:28:04.483Z,97.66
2023-06-26T05:29:04.521Z,99.29
2023-06-26T05:30:04.583Z,98.77
2023-06-26T05:31:04.708Z,99.37
2023-06-26T05:32:04.696Z,95.08
2023-06-26T05:33:04.790Z,89.82
2023-06-26T05:34:04.785Z,86.69
2023-06-26T05:35:04.857Z,44.52
2023-06-26T05:36:04.784Z,0.00
2023-06-26T05:37:04.808Z,0.00
2023-06-26T05:38:04.911Z,8.27
2023-06-26T05:39:04.918Z,25.00
2023-06-26T05:40:04.915Z,25.00
2023-06-26T05:41:05.380Z,25.00
2023-06-26T05:42:04.925Z,25.36
2023-06-26T05:43:04.970Z,25.00
2023-06-26T05:44:05.020Z,26.23
2023-06-26T05:45:05.046Z,28.80
2023-06-26T05:46:05.104Z,26.74
2023-06-26T05:47:05.192Z,25.32
2023-06-26T05:48:05.334Z,25.00
2023-06-26T05:49:05.258Z,25.58
2023-06-26T05:50:05.315Z,26.88
2023-06-26T05:51:05.376Z,29.03
2023-06-26T05:52:05.440Z,26.23
2023-06-26T05:53:05.512Z,25.00
2023-06-26T05:54:05.544Z,25.46
2023-06-26T05:55:05.629Z,25.30
2023-06-26T05:56:05.740Z,27.31
2023-06-26T05:57:05.794Z,32.11
2023-06-26T05:58:05.762Z,36.73
2023-06-26T05:59:05.804Z,44.42
2023-06-26T06:00:05.848Z,51.66
2023-06-26T06:01:05.906Z,60.55
2023-06-26T06:02:06.080Z,67.91
2023-06-26T06:03:06.074Z,70.47
2023-06-26T06:04:06.106Z,80.60
2023-06-26T06:05:06.083Z,93.62
2023-06-26T06:06:06.147Z,103.30
2023-06-26T06:07:06.199Z,113.81
2023-06-26T06:08:06.193Z,109.82
2023-06-26T06:09:06.196Z,76.54
2023-06-26T06:10:06.235Z,49.20
2023-06-26T06:11:06.256Z,32.90
2023-06-26T06:12:06.289Z,25.00
2023-06-26T06:13:06.339Z,24.57
2023-06-26T06:14:06.368Z,25.00
2023-06-26T06:15:06.538Z,25.00
2023-06-26T06:16:06.467Z,24.05
2023-06-26T06:17:06.562Z,26.04
2023-06-26T06:18:06.644Z,24.24
2023-06-26T06:19:06.617Z,24.93
2023-06-26T06:20:06.696Z,25.00
2023-06-26T06:21:06.744Z,25.01
2023-06-26T06:22:06.729Z,25.00
2023-06-26T06:23:06.782Z,25.56
2023-06-26T06:24:06.756Z,30.17
2023-06-26T06:25:06.778Z,30.37
2023-06-26T06:26:06.852Z,30.50
2023-06-26T06:27:06.833Z,31.53
2023-06-26T06:28:06.828Z,31.29
2023-06-26T06:29:06.849Z,52.77
2023-06-26T06:30:08.930Z,42.53
2023-06-26T06:31:06.886Z,39.73
2023-06-26T06:32:07.011Z,36.87
2023-06-26T06:33:07.029Z,39.06
2023-06-26T06:34:06.984Z,37.09
2023-06-26T06:35:06.953Z,39.31
2023-06-26T06:36:06.971Z,42.02
2023-06-26T06:37:07.051Z,44.28
2023-06-26T06:38:07.100Z,54.68
2023-06-26T06:39:07.140Z,57.29
2023-06-26T06:40:07.432Z,68.40
2023-06-26T06:41:07.189Z,74.96
2023-06-26T06:42:07.252Z,83.24
2023-06-26T06:43:07.324Z,89.11
2023-06-26T06:44:07.390Z,94.86
2023-06-26T06:45:07.908Z,98.15
2023-06-26T06:46:07.904Z,106.02
2023-06-26T06:47:07.528Z,111.37
2023-06-26T06:48:07.630Z,115.75
2023-06-26T06:49:07.656Z,119.36
2023-06-26T06:50:07.904Z,120.94
2023-06-26T06:51:10.107Z,124.31
2023-06-26T06:52:07.941Z,120.97
2023-06-26T06:53:07.957Z,119.22
2023-06-26T06:54:07.990Z,120.87
2023-06-26T06:55:08.010Z,125.78
2023-06-26T06:56:08.039Z,128.95
2023-06-26T06:57:08.099Z,133.47
2023-06-26T06:58:08.077Z,136.51
2023-06-26T06:59:08.097Z,137.08
2023-06-26T07:00:08.116Z,135.06
2023-06-26T07:01:08.460Z,134.85
2023-06-26T07:02:08.180Z,140.03
2023-06-26T07:03:08.257Z,142.65
2023-06-26T07:04:08.205Z,143.51
2023-06-26T07:05:08.261Z,146.23
2023-06-26T07:06:08.205Z,151.16
2023-06-26T07:07:08.284Z,150.52
2023-06-26T07:08:08.225Z,155.99
2023-06-26T07:09:08.223Z,157.92
2023-06-26T07:10:08.229Z,154.82
2023-06-26T07:11:08.247Z,153.42
2023-06-26T07:12:08.242Z,151.78
2023-06-26T07:13:08.231Z,148.23
2023-06-26T07:14:08.235Z,152.16
2023-06-26T07:15:08.247Z,150.68
2023-06-26T07:16:08.250Z,152.92
2023-06-26T07:17:08.254Z,152.02
2023-06-26T07:18:08.285Z,147.91
2023-06-26T07:19:08.247Z,147.91
2023-06-26T07:20:08.315Z,153.15
2023-06-26T07:21:08.261Z,144.30
2023-06-26T07:22:08.253Z,132.84
2023-06-26T07:23:08.250Z,136.22
2023-06-26T07:24:08.227Z,136.89
2023-06-26T07:25:08.239Z,142.32
2023-06-26T07:26:08.265Z,143.68
2023-06-26T07:27:08.341Z,146.31
2023-06-26T07:28:08.384Z,146.19
2023-06-26T07:29:08.468Z,141.75
2023-06-26T07:30:08.525Z,146.65
2023-06-26T07:31:09.138Z,154.27
2023-06-26T07:32:08.617Z,165.18
2023-06-26T07:33:08.670Z,171.89
2023-06-26T07:34:08.720Z,171.35
2023-06-26T07:35:08.808Z,174.82
2023-06-26T07:36:08.917Z,178.77
2023-06-26T07:37:08.909Z,205.36
2023-06-26T07:38:08.924Z,210.93
2023-06-26T07:39:11.333Z,205.23
2023-06-26T07:40:08.949Z,202.63
2023-06-26T07:41:09.420Z,197.00
2023-06-26T07:42:08.929Z,197.67
2023-06-26T07:43:08.945Z,205.28
2023-06-26T07:44:08.911Z,211.97
2023-06-26T07:45:10.120Z,205.85
2023-06-26T07:46:08.935Z,208.78
2023-06-26T07:47:08.960Z,215.07
2023-06-26T07:48:08.967Z,224.80
2023-06-26T07:49:08.885Z,241.16
2023-06-26T07:50:08.884Z,246.64
2023-06-26T07:51:08.881Z,250.00
2023-06-26T07:52:08.855Z,249.11
2023-06-26T07:53:08.863Z,250.00
2023-06-26T07:54:08.848Z,248.15
2023-06-26T07:55:08.889Z,250.00
2023-06-26T07:56:08.852Z,250.68
2023-06-26T07:57:08.821Z,250.00
2023-06-26T07:58:08.832Z,249.84
2023-06-26T07:59:08.812Z,250.03
2023-06-26T08:00:08.806Z,249.99
2023-06-26T08:01:09.044Z,250.00
2023-06-26T08:02:08.797Z,249.43
2023-06-26T08:03:12.654Z,250.00
2023-06-26T08:04:09.856Z,249.70
2023-06-26T08:05:08.985Z,242.44
2023-06-26T08:07:37.547Z,25.00
2023-06-26T08:08:37.512Z,25.00
2023-06-26T08:09:37.506Z,25.00
2023-06-26T08:10:37.947Z,25.00
2023-06-26T08:11:37.990Z,25.00
2023-06-26T08:12:37.513Z,25.00
2023-06-26T08:13:37.509Z,24.85
2023-06-26T08:14:37.506Z,29.94
2023-06-26T08:15:37.524Z,27.32
2023-06-26T08:16:37.588Z,5.58
2023-06-26T08:17:37.586Z,21.38
2023-06-26T08:18:37.510Z,25.03
2023-06-26T08:19:37.490Z,25.00
2023-06-26T08:20:37.721Z,25.40
2023-06-26T08:21:37.497Z,44.74
2023-06-26T08:22:37.498Z,46.49
2023-06-26T08:23:37.518Z,39.90
2023-06-26T08:24:37.535Z,43.63
2023-06-26T08:25:37.540Z,0.00
2023-06-26T08:26:38.511Z,0.00
2023-06-26T08:27:37.581Z,0.00
2023-06-26T08:28:37.599Z,0.00
2023-06-26T08:29:37.692Z,7.32
2023-06-26T08:30:38.809Z,18.33
2023-06-26T08:31:38.025Z,30.39
2023-06-26T08:32:37.862Z,33.06
2023-06-26T08:33:37.681Z,39.32
2023-06-26T08:34:37.686Z,50.51
2023-06-26T08:35:37.687Z,41.47
2023-06-26T08:36:37.697Z,56.81
2023-06-26T08:37:37.673Z,0.27
2023-06-26T08:38:37.683Z,0.00
2023-06-26T08:39:37.850Z,28.99
2023-06-26T08:40:38.064Z,28.28
2023-06-26T08:41:38.009Z,25.00
2023-06-26T08:42:37.770Z,26.91
2023-06-26T08:43:37.783Z,51.61
2023-06-26T08:44:46.082Z,49.56
2023-06-26T08:45:38.792Z,50.07
2023-06-26T08:46:37.873Z,53.59
2023-06-26T08:47:37.890Z,67.60
2023-06-26T08:48:37.801Z,85.90
2023-06-26T08:49:37.764Z,120.63
2023-06-26T08:50:38.069Z,135.90
2023-06-26T08:51:37.778Z,105.94
2023-06-26T08:52:37.746Z,112.35
2023-06-26T08:53:37.741Z,126.59
2023-06-26T08:54:37.746Z,92.68
2023-06-26T08:55:37.745Z,19.50
2023-06-26T08:56:37.736Z,0.00
2023-06-26T08:57:37.737Z,0.00
2023-06-26T08:58:37.732Z,0.00
2023-06-26T08:59:37.720Z,0.00
2023-06-26T09:00:38.133Z,0.00
2023-06-26T09:01:37.713Z,0.00
2023-06-26T09:02:37.832Z,0.00
2023-06-26T09:03:37.786Z,0.00
2023-06-26T09:04:37.883Z,0.00
2023-06-26T09:05:37.675Z,22.35
2023-06-26T09:06:37.705Z,21.21
2023-06-26T09:07:37.755Z,25.69
2023-06-26T09:08:37.642Z,23.14
2023-06-26T09:09:37.649Z,37.24
2023-06-26T09:10:37.855Z,52.08
2023-06-26T09:11:37.641Z,45.75
2023-06-26T09:12:37.652Z,65.03
2023-06-26T09:13:37.667Z,88.97
2023-06-26T09:14:37.681Z,129.27
2023-06-26T09:15:37.710Z,82.71
2023-06-26T09:16:37.769Z,71.40
2023-06-26T09:17:37.730Z,91.06
2023-06-26T09:18:37.719Z,118.12
2023-06-26T09:19:37.713Z,142.71
2023-06-26T09:20:38.238Z,135.19
2023-06-26T09:21:37.734Z,128.13
2023-06-26T09:22:37.722Z,130.11
2023-06-26T09:23:37.722Z,145.46
2023-06-26T09:24:37.713Z,131.88
2023-06-26T09:25:38.692Z,99.69
2023-06-26T09:26:37.754Z,85.33
2023-06-26T09:27:37.727Z,80.96
2023-06-26T09:28:37.732Z,87.25
2023-06-26T09:29:37.729Z,109.16
2023-06-26T09:30:38.221Z,117.12
2023-06-26T09:31:42.235Z,72.93
2023-06-26T09:32:38.956Z,42.40
2023-06-26T09:33:37.877Z,38.25
2023-06-26T09:34:37.764Z,23.03
2023-06-26T09:35:37.714Z,30.97
2023-06-26T09:36:40.056Z,32.35
2023-06-26T09:37:38.026Z,39.18
2023-06-26T09:38:37.712Z,42.59
2023-06-26T09:39:37.685Z,72.20
2023-06-26T09:40:37.943Z,78.55
2023-06-26T09:41:38.058Z,68.48
2023-06-26T09:42:37.669Z,58.12
2023-06-26T09:43:37.673Z,59.86
2023-06-26T09:44:37.729Z,96.31
2023-06-26T09:45:37.722Z,71.85
2023-06-26T09:46:38.081Z,59.64
2023-06-26T09:47:37.657Z,43.95
2023-06-26T09:48:37.624Z,39.43
2023-06-26T09:49:37.617Z,46.26
2023-06-26T09:50:38.014Z,48.31
2023-06-26T09:51:37.661Z,43.10
2023-06-26T09:52:37.839Z,39.78
2023-06-26T09:53:37.596Z,68.22
2023-06-26T09:54:37.605Z,75.64
2023-06-26T09:55:37.601Z,81.27
2023-06-26T09:56:37.610Z,76.39
2023-06-26T09:57:37.574Z,59.88
2023-06-26T09:58:37.567Z,51.88
2023-06-26T09:59:37.550Z,44.65
2023-06-26T10:00:37.794Z,46.10
2023-06-26T10:01:37.630Z,45.17
2023-06-26T10:02:37.684Z,25.00
2023-06-26T10:03:37.651Z,41.21
2023-06-26T10:04:37.721Z,66.06
2023-06-26T10:05:37.518Z,74.42
2023-06-26T10:06:37.571Z,72.86
2023-06-26T10:07:37.543Z,40.64
2023-06-26T10:08:37.651Z,38.84
2023-06-26T10:09:37.492Z,60.27
2023-06-26T10:10:37.799Z,58.56
2023-06-26T10:11:37.522Z,41.32
2023-06-26T10:12:37.501Z,78.62
2023-06-26T10:13:37.473Z,52.02
2023-06-26T10:14:37.472Z,35.69
2023-06-26T10:15:37.519Z,24.78
2023-06-26T10:16:37.486Z,66.65
2023-06-26T10:17:37.517Z,115.14
2023-06-26T10:18:37.436Z,131.27
2023-06-26T10:19:37.442Z,89.60
2023-06-26T10:20:37.732Z,69.54
2023-06-26T10:21:37.442Z,92.79
2023-06-26T10:22:37.415Z,47.56
2023-06-26T10:23:37.423Z,59.05
2023-06-26T10:24:37.424Z,81.59
2023-06-26T10:25:37.400Z,107.56
2023-06-26T10:26:37.427Z,79.67
2023-06-26T10:27:37.465Z,36.51
2023-06-26T10:28:37.380Z,20.98
2023-06-26T10:29:37.377Z,0.00
2023-06-26T10:30:37.443Z,0.00
2023-06-26T10:31:37.465Z,0.00
2023-06-26T10:32:37.371Z,25.28
2023-06-26T10:33:37.362Z,38.11
2023-06-26T10:34:37.380Z,44.89
2023-06-26T10:35:37.345Z,43.89
2023-06-26T10:36:37.359Z,56.14
2023-06-26T10:37:37.329Z,72.81
2023-06-26T10:38:37.385Z,109.69
2023-06-26T10:39:37.327Z,105.54
2023-06-26T10:40:37.536Z,50.22
2023-06-26T10:41:38.192Z,17.48
2023-06-26T10:42:37.323Z,7.18
2023-06-26T10:43:37.311Z,7.41
2023-06-26T10:44:37.298Z,22.12
2023-06-26T10:45:37.326Z,25.19
2023-06-26T10:46:37.307Z,29.11
2023-06-26T10:47:37.407Z,47.50
2023-06-26T10:48:37.345Z,24.88
2023-06-26T10:49:37.402Z,32.32
2023-06-26T10:50:37.574Z,77.13
2023-06-26T10:51:37.538Z,90.23
2023-06-26T10:52:37.609Z,97.90
2023-06-26T10:53:37.610Z,120.53
2023-06-26T10:54:37.663Z,141.80
2023-06-26T10:55:37.745Z,150.20
2023-06-26T10:56:38.085Z,178.16
2023-06-26T10:57:37.841Z,161.15
2023-06-26T10:58:37.916Z,84.65
2023-06-26T10:59:37.949Z,42.91
2023-06-26T11:00:38.283Z,37.00
2023-06-26T11:01:38.096Z,71.68
2023-06-26T11:02:38.117Z,102.38
2023-06-26T11:03:38.172Z,105.98
2023-06-26T11:04:38.273Z,103.51
2023-06-26T11:05:38.283Z,107.84
2023-06-26T11:06:38.329Z,120.79
2023-06-26T11:07:38.337Z,120.71
2023-06-26T11:08:38.344Z,126.89
2023-06-26T11:09:38.355Z,153.02
2023-06-26T11:10:38.549Z,199.25
2023-06-26T11:11:38.431Z,193.14
2023-06-26T11:12:38.504Z,209.51
2023-06-26T11:13:38.342Z,230.06
2023-06-26T11:14:38.379Z,245.66
2023-06-26T11:15:38.362Z,249.49
2023-06-26T11:16:38.380Z,245.75
2023-06-26T11:17:38.480Z,237.05
2023-06-26T11:18:38.391Z,246.06
2023-06-26T11:19:38.387Z,253.68
2023-06-26T11:20:38.568Z,230.33
2023-06-26T11:21:38.442Z,245.26
2023-06-26T11:22:38.405Z,236.17
2023-06-26T11:23:38.430Z,252.44
2023-06-26T11:24:38.450Z,248.85
2023-06-26T11:25:38.464Z,248.89
2023-06-26T11:26:38.503Z,249.66
2023-06-26T11:27:38.507Z,248.35
2023-06-26T11:28:38.558Z,240.10
2023-06-26T11:29:38.508Z,251.89
2023-06-26T11:30:38.829Z,250.00
2023-06-26T11:31:38.544Z,248.53
2023-06-26T11:32:38.679Z,248.69
2023-06-26T11:33:38.580Z,246.01
2023-06-26T11:34:38.689Z,248.87
2023-06-26T11:35:38.605Z,239.27
2023-06-26T11:36:38.637Z,240.00
2023-06-26T11:37:38.677Z,237.63
2023-06-26T11:38:38.659Z,247.39
2023-06-26T11:39:38.687Z,245.43
2023-06-26T11:40:39.277Z,250.00
2023-06-26T11:41:38.761Z,244.91
2023-06-26T11:42:38.718Z,249.74
2023-06-26T11:43:38.747Z,243.08
2023-06-26T11:44:38.758Z,235.70
2023-06-26T11:45:38.808Z,238.52
2023-06-26T11:46:38.844Z,240.82
2023-06-26T11:47:38.933Z,240.72
2023-06-26T11:48:38.885Z,239.44
2023-06-26T11:49:38.841Z,237.68
2023-06-26T11:50:39.175Z,243.33
2023-06-26T11:51:38.915Z,244.69
2023-06-26T11:52:38.876Z,242.51
2023-06-26T11:53:38.886Z,242.39
2023-06-26T11:54:38.897Z,241.09
2023-06-26T11:55:38.908Z,246.34
2023-06-26T11:56:38.938Z,250.00
2023-06-26T11:57:38.964Z,248.48
2023-06-26T11:58:38.974Z,248.53
2023-06-26T11:59:38.961Z,245.47
2023-06-26T12:00:39.261Z,238.79
2023-06-26T12:01:38.977Z,239.40
2023-06-26T12:02:39.025Z,235.81
2023-06-26T12:03:39.243Z,233.20
2023-06-26T12:04:39.145Z,235.30
2023-06-26T12:05:41.295Z,227.18
2023-06-26T12:06:39.042Z,233.73
2023-06-26T12:07:39.064Z,233.67
2023-06-26T12:08:39.066Z,233.47
2023-06-26T12:09:39.069Z,236.50
2023-06-26T12:10:39.292Z,238.62
2023-06-26T12:11:39.124Z,235.25
2023-06-26T12:12:39.119Z,233.22
2023-06-26T12:13:39.125Z,226.21
2023-06-26T12:14:39.124Z,232.14
2023-06-26T12:15:39.136Z,230.76
2023-06-26T12:16:39.191Z,231.21
2023-06-26T12:17:39.180Z,229.78
2023-06-26T12:18:39.181Z,222.02
2023-06-26T12:19:39.190Z,230.47
2023-06-26T12:20:39.376Z,220.30
2023-06-26T12:21:39.370Z,224.98
2023-06-26T12:22:39.242Z,222.74
2023-06-26T12:23:39.245Z,217.70
2023-06-26T12:24:39.243Z,222.88
2023-06-26T12:25:39.256Z,221.38
2023-06-26T12:26:39.302Z,223.09
2023-06-26T12:27:39.296Z,229.32
2023-06-26T12:28:39.297Z,216.91
2023-06-26T12:29:39.300Z,224.40
2023-06-26T12:30:39.520Z,229.37
2023-06-26T12:31:39.357Z,230.86
2023-06-26T12:32:39.371Z,227.88
2023-06-26T12:33:39.340Z,229.56
2023-06-26T12:34:39.377Z,225.91
2023-06-26T12:35:40.069Z,234.87
2023-06-26T12:36:39.373Z,230.33
2023-06-26T12:37:39.398Z,227.74
2023-06-26T12:38:39.406Z,233.35